Time;durP1;ratioP1;P1;durP2;ratioP2;P2;SDS_P1;SDS_P2;PMS_P1;PMS_P2;Temp;Humidity;BMP_temperature;BMP_pressure;BME280_temperature;BME280_humidity;BME280_pressure;Samples;Min_cycle;Max_cycle;Signal;HPM_P1;HPM_P2
2022/03/29 00:01:13;;;;;;;4.97;3.72;;;21.60;45.90;;;;;;5011229;28;20030;-72
2022/03/29 00:03:39;;;;;;;6.38;4.05;;;21.60;45.90;;;;;;5018883;28;20022;-73
2022/03/29 00:06:06;;;;;;;6.43;3.97;;;21.60;45.90;;;;;;5028460;28;20112;-73
2022/03/29 00:08:32;;;;;;;6.90;3.90;;;21.60;45.90;;;;;;5030170;28;20537;-73
2022/03/29 00:10:58;;;;;;;6.03;4.05;;;21.60;45.90;;;;;;5030247;28;20108;-73
2022/03/29 00:13:24;;;;;;;6.38;4.15;;;21.60;45.90;;;;;;5030397;28;20405;-73
2022/03/29 00:15:50;;;;;;;7.38;4.28;;;21.60;45.90;;;;;;5030211;28;20481;-73
2022/03/29 00:18:15;;;;;;;5.05;3.50;;;21.60;45.90;;;;;;5030555;28;20025;-72
2022/03/29 00:20:41;;;;;;;6.45;4.00;;;21.60;45.80;;;;;;5030930;28;20562;-73
2022/03/29 00:23:07;;;;;;;5.80;3.92;;;21.60;45.90;;;;;;5030678;28;20026;-73
2022/03/29 00:25:33;;;;;;;5.68;3.92;;;21.60;45.90;;;;;;5029830;28;20025;-73
2022/03/29 00:28:00;;;;;;;5.97;3.78;;;21.60;45.80;;;;;;5031188;28;20026;-73
2022/03/29 00:30:26;;;;;;;6.55;3.97;;;21.60;45.80;;;;;;5029955;28;20507;-73
2022/03/29 00:32:53;;;;;;;5.78;3.70;;;21.70;45.90;;;;;;5029490;28;20022;-73
2022/03/29 00:35:19;;;;;;;5.03;3.67;;;21.60;45.80;;;;;;5030986;28;20033;-73
2022/03/29 00:37:45;;;;;;;5.53;3.65;;;21.60;45.80;;;;;;5031097;28;20036;-73
2022/03/29 00:40:12;;;;;;;5.43;3.50;;;21.60;45.80;;;;;;5030851;28;20401;-73
2022/03/29 00:42:39;;;;;;;4.50;3.42;;;21.60;45.80;;;;;;5030701;28;20033;-73
2022/03/29 00:45:05;;;;;;;5.63;3.58;;;21.60;45.80;;;;;;5030989;28;20032;-73
2022/03/29 00:47:31;;;;;;;4.88;3.40;;;21.60;45.80;;;;;;5030994;28;20021;-73
2022/03/29 00:49:57;;;;;;;5.63;3.33;;;21.60;45.80;;;;;;5029450;28;20455;-73
2022/03/29 00:52:24;;;;;;;4.88;3.60;;;21.60;45.80;;;;;;5030529;28;20040;-72
2022/03/29 00:54:50;;;;;;;4.55;3.25;;;21.60;45.80;;;;;;5031019;28;20425;-73
2022/03/29 00:57:16;;;;;;;5.93;3.50;;;21.60;45.80;;;;;;5030947;28;20060;-73
2022/03/29 00:59:43;;;;;;;718.25;469.00;;;21.60;45.80;;;;;;5030608;28;20517;-73
2022/03/29 01:02:09;;;;;;;5.28;3.50;;;21.60;45.80;;;;;;5030081;28;20030;-73
2022/03/29 01:04:34;;;;;;;5.15;3.58;;;21.60;45.80;;;;;;5029905;28;20025;-73
2022/03/29 01:07:01;;;;;;;4.55;3.42;;;21.60;45.80;;;;;;5030095;28;20028;-73
2022/03/29 01:09:28;;;;;;;5.07;3.55;;;21.60;45.80;;;;;;5029907;28;20025;-73
2022/03/29 01:11:54;;;;;;;4.47;3.22;;;21.60;45.80;;;;;;5029797;28;20025;-74
2022/03/29 01:14:21;;;;;;;5.25;3.50;;;21.60;45.90;;;;;;5029843;28;20025;-74
2022/03/29 01:19:32;;;;;;;5.10;3.38;;;21.60;45.80;;;;;;5028273;28;20398;-74
2022/03/29 01:21:59;;;;;;;6.00;3.80;;;21.60;45.90;;;;;;5029467;28;20055;-74
2022/03/29 01:24:26;;;;;;;4.80;3.35;;;21.60;45.90;;;;;;5030082;28;20390;-74
2022/03/29 01:27:00;;;;;;;4.38;3.20;;;21.60;45.80;;;;;;5030180;28;20022;-74
2022/03/29 01:29:28;;;;;;;5.82;3.50;;;21.60;45.80;;;;;;5029714;28;20105;-73
2022/03/29 01:31:54;;;;;;;4.75;3.50;;;21.60;45.90;;;;;;5033839;28;20032;-74
2022/03/29 01:34:21;;;;;;;3.95;3.15;;;21.60;45.80;;;;;;5034567;28;20037;-74
2022/03/29 01:36:47;;;;;;;5.30;3.50;;;21.60;45.80;;;;;;5034222;28;20022;-75
2022/03/29 01:39:14;;;;;;;5.68;3.70;;;21.60;45.80;;;;;;5034225;28;20508;-74
2022/03/29 01:41:39;;;;;;;4.30;3.15;;;21.60;45.80;;;;;;5033648;28;20029;-74
2022/03/29 01:44:06;;;;;;;4.97;3.17;;;21.60;45.80;;;;;;5016001;28;20571;-74
2022/03/29 01:46:32;;;;;;;34.15;22.92;;;21.60;45.80;;;;;;5033865;28;20022;-74
2022/03/29 01:48:59;;;;;;;4.63;3.40;;;21.60;45.80;;;;;;5033615;28;20441;-74
2022/03/29 01:51:25;;;;;;;4.53;3.47;;;21.60;45.70;;;;;;5028806;28;20031;-74
2022/03/29 01:53:54;;;;;;;5.50;3.35;;;21.60;45.80;;;;;;5033615;28;20112;-74
2022/03/29 01:56:20;;;;;;;6.18;5.28;;;21.60;45.80;;;;;;5024474;28;20425;-74
2022/03/29 01:58:45;;;;;;;4.95;3.25;;;21.60;45.80;;;;;;5022357;28;20038;-74
2022/03/29 02:01:12;;;;;;;4.45;3.25;;;21.60;45.80;;;;;;5013123;28;20045;-74
2022/03/29 02:03:37;;;;;;;5.28;3.25;;;21.60;45.80;;;;;;4996198;28;20656;-74
2022/03/29 02:06:03;;;;;;;5.15;3.35;;;21.50;45.70;;;;;;5016687;28;20469;-74
2022/03/29 02:08:29;;;;;;;5.05;3.35;;;21.50;45.70;;;;;;5033597;28;20067;-74
2022/03/29 02:10:55;;;;;;;6.45;3.90;;;21.50;45.70;;;;;;5024842;28;20061;-75
2022/03/29 02:13:21;;;;;;;4.38;3.30;;;21.60;45.80;;;;;;5012097;28;20069;-75
2022/03/29 02:15:48;;;;;;;4.38;3.50;;;21.60;45.80;;;;;;4985021;28;20336;-74
2022/03/29 02:18:13;;;;;;;287.85;195.45;;;21.50;45.70;;;;;;4994357;28;20546;-74
2022/03/29 02:20:41;;;;;;;5.18;3.53;;;21.50;45.70;;;;;;4994013;28;20113;-74
2022/03/29 02:23:08;;;;;;;642.63;268.55;;;21.60;45.90;;;;;;4993658;28;20035;-74
2022/03/29 02:25:35;;;;;;;221.50;112.47;;;21.60;47.20;;;;;;4992711;28;20053;-74
2022/03/29 02:28:02;;;;;;;6.28;3.63;;;21.70;47.70;;;;;;4992644;28;20026;-74
2022/03/29 02:30:28;;;;;;;5.90;3.45;;;21.70;46.70;;;;;;4992850;28;20034;-74
2022/03/29 02:32:54;;;;;;;79.20;56.33;;;21.70;46.70;;;;;;4993522;28;20483;-73
2022/03/29 02:35:20;;;;;;;360.38;204.07;;;21.70;47.90;;;;;;4994024;28;20026;-77
2022/03/29 02:37:46;;;;;;;12.55;4.45;;;21.70;47.60;;;;;;4992619;28;20026;-77
2022/03/29 02:40:13;;;;;;;9.32;3.47;;;21.70;47.50;;;;;;4993642;28;20495;-76
2022/03/29 02:42:48;;;;;;;12.00;4.43;;;21.70;47.30;;;;;;4992449;28;20034;-77
2022/03/29 02:45:31;;;;;;;10.57;4.13;;;21.70;47.30;;;;;;4992574;28;20030;-77
2022/03/29 02:47:58;;;;;;;8.00;3.90;;;21.70;47.50;;;;;;4993569;28;20023;-77
2022/03/29 02:50:24;;;;;;;12.10;4.05;;;21.70;47.50;;;;;;4992523;28;20039;-77
2022/03/29 02:53:08;;;;;;;10.43;4.65;;;21.70;47.60;;;;;;4992838;28;20403;-77
2022/03/29 02:55:34;;;;;;;8.40;3.92;;;21.60;47.50;;;;;;4976165;28;20041;-77
2022/03/29 02:58:00;;;;;;;6.78;3.50;;;21.60;47.40;;;;;;4993491;28;20031;-77
2022/03/29 03:00:27;;;;;;;7.20;3.75;;;21.60;47.40;;;;;;4993309;28;20483;-77
2022/03/29 03:02:54;;;;;;;6.95;3.58;;;21.60;47.30;;;;;;4992866;28;20023;-77
2022/03/29 03:05:21;;;;;;;6.38;4.00;;;21.60;47.30;;;;;;4993318;28;20030;-77
2022/03/29 03:07:48;;;;;;;7.72;3.88;;;21.60;47.30;;;;;;4993286;28;20026;-77
2022/03/29 03:10:14;;;;;;;5.22;3.63;;;21.60;47.30;;;;;;4975689;28;20515;-77
2022/03/29 03:12:45;;;;;;;6.03;3.65;;;21.60;47.20;;;;;;4992648;28;20034;-77
2022/03/29 03:15:16;;;;;;;10.18;4.60;;;21.60;47.20;;;;;;4992153;28;20031;-77
2022/03/29 03:17:42;;;;;;;94.65;62.10;;;21.60;47.20;;;;;;4992951;28;20471;-77
2022/03/29 03:20:09;;;;;;;7.72;3.85;;;21.60;47.20;;;;;;4975490;28;20033;-77
2022/03/29 03:22:39;;;;;;;6.20;3.85;;;21.60;47.20;;;;;;4991393;28;20069;-77
2022/03/29 03:25:06;;;;;;;8.75;4.03;;;21.60;47.20;;;;;;4992851;28;20023;-77
2022/03/29 03:27:34;;;;;;;5.93;3.72;;;21.60;47.20;;;;;;4991715;28;20030;-77
2022/03/29 03:30:00;;;;;;;6.72;3.63;;;21.60;47.20;;;;;;4975386;28;20041;-77
2022/03/29 03:32:25;;;;;;;6.35;3.90;;;21.60;47.20;;;;;;4992427;28;20030;-77
2022/03/29 03:34:51;;;;;;;5.60;3.58;;;21.60;47.20;;;;;;4992644;28;20101;-77
2022/03/29 03:37:17;;;;;;;6.97;3.90;;;21.60;47.20;;;;;;4992538;28;20034;-77
2022/03/29 03:39:42;;;;;;;5.35;3.78;;;21.60;47.20;;;;;;4991535;28;20042;-77
2022/03/29 03:42:12;;;;;;;5.75;3.63;;;21.60;47.20;;;;;;4974901;28;20034;-77
2022/03/29 03:44:39;;;;;;;9.68;4.15;;;21.60;47.20;;;;;;4992595;28;20022;-77
2022/03/29 03:47:07;;;;;;;5.38;3.83;;;21.60;47.20;;;;;;4991475;28;20057;-77
2022/03/29 03:49:38;;;;;;;7.97;3.80;;;21.60;47.20;;;;;;4991160;28;20030;-77
2022/03/29 03:52:05;;;;;;;7.38;3.95;;;21.50;47.10;;;;;;4992167;28;20085;-77
2022/03/29 03:54:35;;;;;;;5.95;4.00;;;21.50;47.10;;;;;;4974392;28;20137;-77
2022/03/29 03:57:01;;;;;;;7.00;4.03;;;21.60;47.10;;;;;;4992749;28;20023;-77
2022/03/29 03:59:27;;;;;;;7.25;3.88;;;21.50;47.10;;;;;;4991411;28;20053;-76
2022/03/29 04:01:52;;;;;;;9.05;4.18;;;21.50;47.60;;;;;;4990832;28;20573;-77
2022/03/29 04:04:18;;;;;;;6.35;3.83;;;21.50;47.00;;;;;;4992069;28;20479;-77
2022/03/29 04:06:44;;;;;;;7.35;4.10;;;21.60;47.00;;;;;;4990919;28;20034;-77
2022/03/29 04:09:10;;;;;;;7.75;4.63;;;21.50;47.00;;;;;;4974972;28;20125;-77
2022/03/29 04:11:35;;;;;;;5.40;3.85;;;21.50;46.90;;;;;;4990857;28;20026;-77
2022/03/29 04:14:01;;;;;;;5.22;3.95;;;21.50;46.90;;;;;;4990510;28;20038;-77
2022/03/29 04:16:27;;;;;;;6.50;3.92;;;21.60;47.00;;;;;;4991947;28;20041;-77
2022/03/29 04:18:53;;;;;;;5.20;3.58;;;21.60;47.00;;;;;;4992102;28;20410;-77
2022/03/29 04:21:19;;;;;;;6.63;3.97;;;21.50;46.90;;;;;;4991831;28;20398;-77
2022/03/29 04:23:44;;;;;;;5.57;3.92;;;21.50;46.90;;;;;;4990460;28;20022;-77
2022/03/29 04:26:10;;;;;;;5.35;3.92;;;21.50;46.90;;;;;;4991948;28;20030;-76
2022/03/29 04:28:36;;;;;;;6.72;4.25;;;21.50;46.90;;;;;;4991857;28;20105;-77
2022/03/29 04:31:02;;;;;;;7.05;4.15;;;21.50;46.90;;;;;;4991870;28;20497;-76
2022/03/29 04:33:28;;;;;;;6.85;4.15;;;21.50;46.80;;;;;;4990233;28;20038;-76
2022/03/29 04:35:54;;;;;;;6.00;4.15;;;21.50;46.80;;;;;;4990644;28;20487;-77
2022/03/29 04:38:20;;;;;;;6.55;4.03;;;21.50;46.80;;;;;;4990819;28;20030;-77
2022/03/29 04:40:46;;;;;;;5.78;4.07;;;21.50;46.80;;;;;;4991778;28;20058;-76
2022/03/29 04:43:12;;;;;;;5.22;3.78;;;21.50;46.80;;;;;;4990166;28;20518;-77
2022/03/29 04:45:38;;;;;;;5.57;3.85;;;21.50;46.80;;;;;;4991665;28;20506;-77
2022/03/29 04:48:04;;;;;;;6.43;4.13;;;21.50;46.80;;;;;;4990760;28;20095;-77
2022/03/29 04:50:30;;;;;;;8.70;4.03;;;21.50;46.80;;;;;;4990619;28;20033;-78
2022/03/29 04:52:56;;;;;;;7.85;4.30;;;21.50;46.80;;;;;;4990301;28;20084;-78
2022/03/29 04:55:22;;;;;;;6.78;4.15;;;21.50;46.80;;;;;;4990808;28;20121;-78
2022/03/29 04:57:49;;;;;;;6.50;4.13;;;21.50;46.80;;;;;;4990350;28;20041;-78
2022/03/29 05:00:17;;;;;;;7.68;5.55;;;21.50;46.70;;;;;;4990230;28;20030;-78
2022/03/29 05:02:44;;;;;;;6.75;4.20;;;21.50;46.70;;;;;;4991223;28;20126;-78
2022/03/29 05:05:10;;;;;;;7.35;4.47;;;21.50;46.70;;;;;;4993122;28;20089;-78
2022/03/29 05:07:37;;;;;;;8.27;4.57;;;21.50;46.70;;;;;;4994169;28;20026;-78
2022/03/29 05:10:04;;;;;;;6.60;4.10;;;21.50;46.70;;;;;;4994272;28;20072;-78
2022/03/29 05:12:29;;;;;;;5.95;3.90;;;21.50;46.70;;;;;;4995139;28;20072;-78
2022/03/29 05:14:58;;;;;;;5.60;4.18;;;21.50;46.60;;;;;;4995547;28;20488;-78
2022/03/29 05:17:24;;;;;;;5.32;4.13;;;21.50;46.60;;;;;;4995185;28;20483;-76
2022/03/29 05:19:49;;;;;;;9.10;4.80;;;21.50;46.60;;;;;;4995134;28;20041;-77
2022/03/29 05:22:15;;;;;;;5.70;4.43;;;21.50;46.60;;;;;;4993706;28;20034;-77
2022/03/29 05:24:41;;;;;;;6.30;4.28;;;21.50;46.60;;;;;;4994864;28;20030;-79
2022/03/29 05:27:06;;;;;;;6.40;4.32;;;21.50;46.60;;;;;;4995053;28;20483;-79
2022/03/29 05:29:32;;;;;;;7.70;4.85;;;21.50;46.60;;;;;;4993980;28;20030;-79
2022/03/29 05:31:59;;;;;;;8.10;4.18;;;21.50;46.60;;;;;;4994641;28;20022;-78
2022/03/29 05:34:24;;;;;;;7.15;4.32;;;21.50;46.50;;;;;;4994912;28;20137;-79
2022/03/29 05:36:50;;;;;;;6.30;4.60;;;21.50;46.60;;;;;;4995140;28;20529;-78
2022/03/29 05:39:16;;;;;;;6.50;4.68;;;21.50;46.50;;;;;;4994769;28;20113;-79
2022/03/29 05:41:42;;;;;;;6.53;4.32;;;21.50;46.60;;;;;;4976913;28;20035;-78
2022/03/29 05:44:08;;;;;;;7.20;4.50;;;21.40;46.50;;;;;;4977279;28;20497;-78
2022/03/29 05:49:20;;;;;;;7.18;4.38;;;21.40;46.50;;;;;;4994535;28;20033;-79
2022/03/29 05:51:46;;;;;;;7.88;4.57;;;21.40;46.40;;;;;;4994450;28;20030;-78
2022/03/29 05:54:12;;;;;;;7.25;4.32;;;21.50;46.50;;;;;;4993246;28;20084;-78
2022/03/29 05:56:38;;;;;;;6.68;4.43;;;21.40;46.40;;;;;;4993441;28;20129;-79
2022/03/29 05:59:04;;;;;;;5.70;4.50;;;21.40;46.50;;;;;;4994372;28;20030;-79
2022/03/29 06:01:29;;;;;;;7.30;4.40;;;21.40;46.40;;;;;;4994154;28;20037;-79
2022/03/29 06:03:55;;;;;;;6.95;4.70;;;21.40;46.50;;;;;;4994123;28;20098;-79
2022/03/29 06:06:21;;;;;;;8.32;5.00;;;21.40;46.40;;;;;;4993015;28;20038;-79
2022/03/29 06:08:47;;;;;;;7.72;4.85;;;21.40;46.40;;;;;;4993034;28;20022;-78
2022/03/29 06:11:14;;;;;;;10.30;4.60;;;21.40;46.40;;;;;;4993008;28;20038;-78
2022/03/29 06:13:40;;;;;;;8.05;4.70;;;21.40;46.40;;;;;;4994072;28;20030;-79
2022/03/29 06:16:05;;;;;;;7.13;4.78;;;21.40;46.40;;;;;;4993333;28;20084;-78
2022/03/29 06:18:31;;;;;;;6.22;4.53;;;21.40;46.40;;;;;;4994148;28;20034;-78
2022/03/29 06:20:57;;;;;;;8.32;4.75;;;21.40;46.30;;;;;;4994007;28;20031;-79
2022/03/29 06:23:23;;;;;;;7.90;5.18;;;21.40;46.30;;;;;;4993463;28;20526;-78
2022/03/29 06:25:50;;;;;;;61.47;55.88;;;21.40;46.30;;;;;;4994337;28;20030;-79
2022/03/29 06:28:17;;;;;;;9.93;4.72;;;21.40;46.30;;;;;;4994012;28;20415;-78
2022/03/29 06:30:43;;;;;;;7.53;4.75;;;21.40;46.20;;;;;;4992774;28;20416;-78
2022/03/29 06:33:10;;;;;;;7.38;4.72;;;21.40;46.20;;;;;;4992511;28;20031;-79
2022/03/29 06:35:38;;;;;;;7.97;5.28;;;21.40;46.20;;;;;;4994001;28;20372;-79
2022/03/29 06:38:05;;;;;;;6.68;4.70;;;21.40;46.20;;;;;;4992436;28;20403;-78
2022/03/29 06:40:30;;;;;;;7.32;5.07;;;21.40;46.20;;;;;;4992288;28;20033;-79
2022/03/29 06:42:57;;;;;;;87.32;63.28;;;21.40;46.20;;;;;;4993308;28;20038;-78
2022/03/29 06:45:27;;;;;;;8.65;4.95;;;21.40;46.20;;;;;;4992417;28;20053;-78
2022/03/29 06:47:53;;;;;;;6.53;4.60;;;21.40;46.20;;;;;;4976383;28;20368;-78
2022/03/29 06:50:19;;;;;;;7.00;4.93;;;21.40;46.20;;;;;;4992326;28;20033;-77
2022/03/29 06:52:46;;;;;;;9.05;5.50;;;21.40;46.20;;;;;;4991972;28;20030;-79
2022/03/29 06:55:15;;;;;;;8.38;6.50;;;21.40;46.20;;;;;;4993583;28;20030;-79
2022/03/29 06:57:41;;;;;;;9.07;5.40;;;21.40;46.20;;;;;;4992433;28;20121;-79
2022/03/29 07:00:12;;;;;;;6.95;4.90;;;21.40;46.20;;;;;;4992084;28;20555;-78
2022/03/29 07:02:38;;;;;;;6.88;4.90;;;21.40;46.10;;;;;;4991712;28;20124;-78
2022/03/29 07:05:04;;;;;;;7.15;5.15;;;21.40;46.10;;;;;;4993101;28;20074;-79
2022/03/29 07:07:30;;;;;;;279.55;194.77;;;21.40;46.10;;;;;;4993614;28;20018;-78
2022/03/29 07:13:01;;;;;;;7.60;4.95;;;21.40;46.10;;;;;;4992807;28;20113;-78
2022/03/29 07:15:27;;;;;;;88.63;55.15;;;21.40;46.10;;;;;;4991904;28;20105;-79
2022/03/29 07:17:54;;;;;;;6.97;5.00;;;21.40;46.00;;;;;;4975991;28;20042;-78
2022/03/29 07:20:20;;;;;;;6.22;5.03;;;21.40;46.00;;;;;;4992954;28;20038;-78
2022/03/29 07:22:47;;;;;;;7.80;5.07;;;21.40;46.00;;;;;;4991464;28;20027;-78
2022/03/29 07:25:15;;;;;;;8.35;5.78;;;21.40;46.00;;;;;;4992939;28;20023;-79
2022/03/29 07:27:41;;;;;;;8.85;5.47;;;21.40;46.00;;;;;;4975313;28;20469;-78
2022/03/29 07:30:08;;;;;;;124.57;93.18;;;21.40;46.00;;;;;;4992733;28;20113;-79
2022/03/29 07:32:42;;;;;;;7.13;4.93;;;21.40;45.90;;;;;;4992433;28;20069;-79
2022/03/29 07:35:08;;;;;;;7.18;5.00;;;21.40;45.90;;;;;;4991539;28;20058;-79
2022/03/29 07:37:34;;;;;;;8.20;5.10;;;21.40;45.80;;;;;;4992843;28;20554;-78
2022/03/29 07:39:59;;;;;;;8.35;5.28;;;21.40;45.80;;;;;;4991882;28;20030;-79
2022/03/29 07:42:25;;;;;;;7.45;5.47;;;21.40;45.80;;;;;;4992213;28;20057;-78
2022/03/29 07:44:51;;;;;;;7.22;4.97;;;21.40;45.80;;;;;;4992449;28;20474;-78
2022/03/29 07:47:19;;;;;;;9.68;5.53;;;21.40;45.80;;;;;;4992623;28;20034;-79
2022/03/29 07:49:46;;;;;;;7.05;5.40;;;21.40;45.80;;;;;;4992464;28;20026;-78
2022/03/29 07:52:13;;;;;;;8.10;5.50;;;21.40;45.80;;;;;;4991030;28;20026;-78
2022/03/29 07:54:38;;;;;;;7.90;5.30;;;21.40;45.80;;;;;;4992414;28;20495;-79
2022/03/29 07:57:08;;;;;;;6.97;5.40;;;21.40;45.70;;;;;;4992473;28;20057;-78
2022/03/29 07:59:37;;;;;;;;;;;21.40;45.70;;;;;;4993141;28;20030;-78
2022/03/29 08:02:07;;;;;;;7.70;5.35;;;21.40;45.60;;;;;;4974850;28;19921;-79
2022/03/29 08:04:33;;;;;;;8.07;5.10;;;21.40;45.60;;;;;;4991233;28;20061;-78
2022/03/29 08:07:00;;;;;;;6.82;5.22;;;21.40;45.90;;;;;;4992306;28;20464;-79
2022/03/29 08:09:29;;;;;;;8.05;4.93;;;21.40;45.60;;;;;;4992235;28;20517;-79
2022/03/29 08:11:55;;;;;;;7.70;5.22;;;21.40;45.60;;;;;;4991866;28;20118;-78
2022/03/29 08:14:25;;;;;;;8.07;5.68;;;21.40;45.60;;;;;;4992116;28;20041;-78
2022/03/29 08:16:56;;;;;;;8.30;5.32;;;21.40;45.60;;;;;;4992170;28;20478;-78
2022/03/29 08:19:22;;;;;;;7.25;5.03;;;21.40;45.60;;;;;;4990934;28;20046;-78
2022/03/29 08:21:49;;;;;;;8.57;5.25;;;21.50;45.50;;;;;;4974399;28;20037;-78
2022/03/29 08:24:23;;;;;;;8.07;5.10;;;21.50;45.60;;;;;;4990982;28;20472;-79
2022/03/29 08:26:54;;;;;;;7.45;5.38;;;21.50;45.50;;;;;;4990966;28;20115;-79
2022/03/29 08:29:21;;;;;;;7.68;5.25;;;21.50;45.50;;;;;;4992043;28;20084;-78
2022/03/29 08:31:49;;;;;;;7.55;5.20;;;21.50;45.50;;;;;;4991584;28;20039;-78
2022/03/29 08:34:16;;;;;;;7.47;5.13;;;21.50;45.50;;;;;;4991675;28;20033;-79
2022/03/29 08:36:42;;;;;;;7.20;5.30;;;21.60;45.50;;;;;;4990699;28;20038;-78
2022/03/29 08:39:08;;;;;;;5.72;4.72;;;21.50;45.40;;;;;;4990707;28;20372;-79
2022/03/29 08:41:37;;;;;;;8.73;5.07;;;21.60;45.50;;;;;;4995387;28;20038;-79
2022/03/29 08:44:04;;;;;;;8.18;5.15;;;21.60;45.30;;;;;;4995670;28;20109;-79
2022/03/29 08:46:38;;;;;;;7.05;4.80;;;21.60;45.40;;;;;;4995772;28;20018;-79
2022/03/29 08:49:08;;;;;;;7.32;5.45;;;21.60;45.20;;;;;;4978425;28;20487;-79
2022/03/29 08:51:34;;;;;;;;;;;21.60;45.10;;;;;;4996064;28;20070;-78
2022/03/29 08:54:00;;;;;;;7.90;5.55;;;21.60;45.10;;;;;;4995630;28;19909;-79
2022/03/29 08:56:26;;;;;;;6.45;4.82;;;21.60;45.10;;;;;;4995750;28;20041;-79
2022/03/29 08:58:51;;;;;;;7.07;5.18;;;21.60;45.10;;;;;;4995829;28;20105;-80
2022/03/29 09:01:21;;;;;;;7.38;4.85;;;21.60;45.20;;;;;;4994152;28;20026;-78
2022/03/29 09:04:10;;;;;;;7.30;5.32;;;21.60;45.30;;;;;;4994236;28;20105;-79
2022/03/29 09:06:50;;;;;;;9.02;5.32;;;21.60;45.30;;;;;;4994397;28;20400;-79
2022/03/29 09:09:36;;;;;;;7.72;5.22;;;21.60;45.30;;;;;;4995484;28;20106;-79
2022/03/29 09:12:20;;;;;;;6.95;5.03;;;21.70;45.30;;;;;;4995008;28;20022;-79
2022/03/29 09:14:57;;;;;;;7.28;5.10;;;21.60;45.20;;;;;;4995408;28;20053;-79
2022/03/29 09:17:27;;;;;;;7.72;5.05;;;21.70;45.40;;;;;;4995391;28;20109;-79
2022/03/29 09:19:55;;;;;;;9.15;5.43;;;21.70;45.40;;;;;;4977745;28;20410;-78
2022/03/29 09:22:46;;;;;;;7.55;5.05;;;21.70;45.20;;;;;;4994885;28;20033;-79
2022/03/29 09:25:18;;;;;;;7.47;5.32;;;21.70;45.40;;;;;;4995206;28;20069;-79
2022/03/29 09:27:57;;;;;;;7.75;5.10;;;21.70;45.40;;;;;;4995293;28;20034;-79
2022/03/29 09:30:26;;;;;;;977.65;637.65;;;21.70;45.40;;;;;;4995186;28;20038;-79
2022/03/29 09:33:04;;;;;;;7.07;5.15;;;21.70;45.50;;;;;;4994987;28;20471;-78
2022/03/29 09:35:31;;;;;;;7.15;5.30;;;21.70;45.50;;;;;;4995151;28;20042;-79
2022/03/29 09:37:58;;;;;;;9.05;5.30;;;21.70;45.50;;;;;;4995061;28;20077;-79
2022/03/29 09:40:39;;;;;;;395.08;326.73;;;21.70;45.60;;;;;;4994918;28;20105;-78
2022/03/29 09:43:26;;;;;;;8.18;5.28;;;21.70;45.60;;;;;;4994185;28;20035;-79
2022/03/29 09:45:57;;;;;;;7.45;4.72;;;21.70;45.60;;;;;;4994922;28;20114;-79
2022/03/29 09:48:32;;;;;;;7.20;4.80;;;21.70;45.60;;;;;;4994831;28;20022;-78
2022/03/29 09:51:19;;;;;;;7.07;5.00;;;21.70;45.30;;;;;;4994646;28;20073;-78
2022/03/29 09:53:54;;;;;;;7.85;5.15;;;21.70;45.40;;;;;;4994388;28;20033;-78
2022/03/29 09:56:31;;;;;;;6.30;4.78;;;21.70;45.30;;;;;;4994516;28;20038;-78
2022/03/29 09:59:04;;;;;;;7.68;5.07;;;21.70;45.30;;;;;;4994712;28;20030;-79
2022/03/29 10:01:31;;;;;;;7.05;4.90;;;21.70;45.30;;;;;;4994517;28;20056;-77
2022/03/29 10:03:58;;;;;;;7.47;4.82;;;21.70;45.20;;;;;;4993087;28;20026;-76
2022/03/29 10:06:24;;;;;;;6.75;4.93;;;21.70;45.30;;;;;;4993174;28;20056;-77
2022/03/29 10:11:43;;;;;;;6.45;4.93;;;21.70;45.50;;;;;;4993066;28;20066;-77
2022/03/29 10:14:12;;;;;;;6.90;4.78;;;21.70;45.50;;;;;;4994080;28;20360;-76
2022/03/29 10:16:38;;;;;;;6.50;4.75;;;21.70;45.40;;;;;;4992846;28;20541;-77
2022/03/29 10:19:06;;;;;;;7.57;4.97;;;21.70;45.40;;;;;;4994364;28;20069;-76
2022/03/29 10:21:32;;;;;;;7.30;5.05;;;21.70;46.10;;;;;;4992749;28;20479;-76
2022/03/29 10:23:59;;;;;;;7.28;4.90;;;21.70;45.50;;;;;;4992775;28;20476;-77
2022/03/29 10:26:27;;;;;;;6.32;4.60;;;21.70;45.50;;;;;;4992728;28;20480;-77
2022/03/29 10:28:53;;;;;;;8.90;4.95;;;21.70;45.60;;;;;;4992662;28;20033;-79
2022/03/29 10:31:29;;;;;;;8.18;5.18;;;21.70;45.60;;;;;;4993857;28;20392;-77
2022/03/29 10:34:19;;;;;;;6.72;4.95;;;21.70;45.60;;;;;;4992431;28;20137;-76
2022/03/29 10:37:07;;;;;;;6.55;5.07;;;21.70;45.50;;;;;;4992538;28;20534;-77
2022/03/29 10:40:02;;;;;;;7.15;4.82;;;21.70;45.50;;;;;;4992516;28;20057;-77
2022/03/29 10:42:44;;;;;;;6.60;4.93;;;21.70;45.50;;;;;;4992171;28;20073;-76
2022/03/29 10:45:12;;;;;;;6.50;4.60;;;21.60;45.50;;;;;;4993775;28;20487;-76
2022/03/29 10:47:38;;;;;;;7.90;5.03;;;21.60;45.50;;;;;;4994054;28;20464;-77
2022/03/29 10:50:06;;;;;;;135.38;95.85;;;21.60;46.20;;;;;;4992427;28;20034;-76
2022/03/29 10:52:44;;;;;;;5.68;4.88;;;21.60;45.60;;;;;;4992263;28;20054;-77
2022/03/29 10:55:36;;;;;;;5.97;4.53;;;21.60;45.60;;;;;;4993815;28;20026;-77
2022/03/29 10:58:14;;;;;;;6.75;4.72;;;21.60;45.60;;;;;;4989586;28;20077;-77
2022/03/29 11:00:42;;;;;;;595.22;390.50;;;21.70;45.90;;;;;;4992037;28;20034;-77
2022/03/29 11:03:13;;;;;;;6.75;4.65;;;21.70;45.70;;;;;;4992490;28;20026;-77
2022/03/29 11:06:10;;;;;;;829.72;555.63;;;21.70;45.70;;;;;;4993445;28;20053;-76
2022/03/29 11:08:41;;;;;;;6.70;4.88;;;21.70;45.60;;;;;;4993248;28;20022;-76
2022/03/29 11:11:28;;;;;;;7.82;4.95;;;21.70;45.60;;;;;;4975956;28;20034;-76
2022/03/29 11:13:55;;;;;;;6.50;4.47;;;21.70;45.60;;;;;;4991556;28;20026;-75
2022/03/29 11:16:28;;;;;;;7.03;4.82;;;21.70;45.70;;;;;;4991982;28;20038;-75
2022/03/29 11:18:54;;;;;;;8.50;5.07;;;21.70;45.60;;;;;;4992997;28;20497;-75
2022/03/29 11:21:33;;;;;;;7.55;5.07;;;21.70;45.70;;;;;;4991734;28;20038;-76
2022/03/29 11:24:00;;;;;;;7.93;6.32;;;21.70;45.70;;;;;;4992668;28;20360;-75
2022/03/29 11:26:26;;;;;;;8.30;5.13;;;21.70;45.70;;;;;;4992831;28;20130;-76
2022/03/29 11:28:54;;;;;;;7.47;4.93;;;21.70;45.60;;;;;;4992868;28;20458;-76
2022/03/29 11:31:21;;;;;;;7.38;4.90;;;21.70;45.70;;;;;;4992676;28;20041;-76
2022/03/29 11:33:52;;;;;;;7.57;4.60;;;21.70;45.70;;;;;;4991875;28;20383;-76
2022/03/29 11:36:19;;;;;;;6.45;4.90;;;21.70;45.70;;;;;;4992843;28;20391;-76
2022/03/29 11:38:46;;;;;;;6.15;4.53;;;21.70;45.70;;;;;;4992779;28;20026;-76
2022/03/29 11:41:29;;;;;;;8.25;4.97;;;21.70;45.70;;;;;;4992790;28;20054;-76
2022/03/29 11:44:01;;;;;;;7.25;5.07;;;21.70;45.60;;;;;;4991163;28;20348;-76
2022/03/29 11:46:43;;;;;;;6.07;4.82;;;21.70;45.70;;;;;;4992533;28;20372;-76
2022/03/29 11:49:09;;;;;;;6.10;4.40;;;21.70;45.60;;;;;;4991610;28;20041;-75
2022/03/29 11:51:35;;;;;;;7.00;4.72;;;21.70;45.70;;;;;;4991340;28;20395;-76
2022/03/29 11:54:01;;;;;;;6.25;4.57;;;21.70;45.70;;;;;;4992273;28;20034;-76
2022/03/29 11:56:27;;;;;;;9.00;4.78;;;21.70;45.70;;;;;;4992514;28;20054;-76
2022/03/29 11:58:55;;;;;;;6.10;4.55;;;21.70;45.70;;;;;;4992239;28;20034;-76
2022/03/29 12:01:24;;;;;;;6.82;4.65;;;21.70;45.70;;;;;;4992210;28;20036;-76
2022/03/29 12:03:57;;;;;;;7.30;4.60;;;21.70;45.70;;;;;;4991805;28;20022;-76
2022/03/29 12:06:29;;;;;;;7.07;4.57;;;21.70;45.60;;;;;;4992336;28;20120;-76
2022/03/29 12:09:01;;;;;;;6.03;4.70;;;21.70;45.60;;;;;;4992283;28;20027;-75
2022/03/29 12:11:32;;;;;;;8.15;4.15;;;21.70;45.60;;;;;;4992080;28;20387;-76
2022/03/29 12:14:07;;;;;;;455.10;210.32;;;21.70;45.60;;;;;;4993570;28;20436;-75
2022/03/29 12:16:38;;;;;;;9.30;4.40;;;21.70;45.40;;;;;;5011472;28;20045;-75
2022/03/29 12:19:09;;;;;;;55.53;32.20;;;21.70;45.40;;;;;;4994943;28;20374;-77
2022/03/29 12:21:35;;;;;;;6.70;4.60;;;21.70;45.40;;;;;;5011696;28;20030;-78
2022/03/29 12:24:09;;;;;;;9.15;4.75;;;21.70;45.40;;;;;;5011267;28;20038;-75
2022/03/29 12:27:04;;;;;;;8.88;4.60;;;21.70;45.40;;;;;;5011599;28;20068;-74
2022/03/29 12:29:32;;;;;;;7.07;4.85;;;21.70;45.50;;;;;;4992078;28;20035;-75
2022/03/29 12:32:00;;;;;;;7.35;4.63;;;21.70;45.50;;;;;;4990565;28;20173;-77
2022/03/29 12:34:28;;;;;;;7.88;4.70;;;21.70;46.10;;;;;;4991932;28;20034;-76
2022/03/29 12:36:56;;;;;;;8.27;4.90;;;21.70;45.50;;;;;;5008581;28;20064;-79
2022/03/29 12:39:30;;;;;;;7.13;4.45;;;21.70;45.60;;;;;;5019637;28;20022;-75
2022/03/29 12:41:56;;;;;;;10.27;5.85;;;21.70;45.60;;;;;;5015566;28;20034;-76
2022/03/29 12:44:43;;;;;;;7.75;4.40;;;21.70;45.60;;;;;;5019601;28;20436;-75
2022/03/29 12:47:10;;;;;;;7.10;4.60;;;21.70;45.60;;;;;;5019422;28;20017;-75
2022/03/29 12:49:37;;;;;;;7.20;4.90;;;21.70;45.60;;;;;;5019492;28;20036;-75
2022/03/29 12:52:05;;;;;;;12.18;4.82;;;21.60;45.60;;;;;;5017901;28;20132;-75
2022/03/29 12:54:41;;;;;;;6.30;4.13;;;21.60;45.60;;;;;;5028122;28;20072;-75
2022/03/29 12:57:10;;;;;;;8.85;4.65;;;21.60;45.60;;;;;;5016150;28;20026;-75
2022/03/29 12:59:38;;;;;;;7.43;4.45;;;21.70;45.60;;;;;;5011262;28;20447;-75
2022/03/29 13:02:21;;;;;;;7.35;4.40;;;21.70;45.60;;;;;;5009573;28;20752;-75
2022/03/29 13:04:56;;;;;;;6.90;4.97;;;21.70;45.60;;;;;;5011277;28;20031;-75